sensor_id;sensor_type;location;lat;lon;timestamp;P1;durP1;ratioP1;P2;durP2;ratioP2
3095;SDS011;1558;42.700;23.360;2023-12-04T08:51:17;9.50;;;8.60;;
3095;SDS011;1558;42.700;23.360;2023-12-04T09:30:56;9.93;;;8.30;;
3095;SDS011;1558;42.700;23.360;2023-12-04T09:33:34;8.70;;;7.90;;
3095;SDS011;1558;42.700;23.360;2023-12-04T09:39:55;9.43;;;8.17;;
3095;SDS011;1558;42.700;23.360;2023-12-04T09:42:23;11.13;;;7.80;;
3095;SDS011;1558;42.700;23.360;2023-12-04T09:44:52;10.83;;;9.27;;
3095;SDS011;1558;42.700;23.360;2023-12-04T09:47:22;10.00;;;8.97;;
3095;SDS011;1558;42.700;23.360;2023-12-04T09:49:52;8.97;;;8.07;;
3095;SDS011;1558;42.700;23.360;2023-12-04T09:52:22;9.57;;;7.80;;
3095;SDS011;1558;42.700;23.360;2023-12-04T09:54:51;8.50;;;7.70;;
3095;SDS011;1558;42.700;23.360;2023-12-04T09:57:19;7.90;;;6.93;;
3095;SDS011;1558;42.700;23.360;2023-12-04T09:59:49;9.40;;;7.07;;
3095;SDS011;1558;42.700;23.360;2023-12-04T10:02:19;9.67;;;8.67;;
3095;SDS011;1558;42.700;23.360;2023-12-04T10:04:49;8.80;;;8.00;;
3095;SDS011;1558;42.700;23.360;2023-12-04T10:07:18;8.77;;;7.97;;
3095;SDS011;1558;42.700;23.360;2023-12-04T10:09:46;13.50;;;8.40;;
3095;SDS011;1558;42.700;23.360;2023-12-04T10:12:18;11.87;;;8.83;;
3095;SDS011;1558;42.700;23.360;2023-12-04T10:15:02;10.60;;;9.50;;
3095;SDS011;1558;42.700;23.360;2023-12-04T10:17:34;13.03;;;10.10;;
3095;SDS011;1558;42.700;23.360;2023-12-04T10:20:04;11.97;;;9.30;;
3095;SDS011;1558;42.700;23.360;2023-12-04T10:22:38;8.80;;;8.00;;
3095;SDS011;1558;42.700;23.360;2023-12-04T10:25:13;8.67;;;7.77;;
3095;SDS011;1558;42.700;23.360;2023-12-04T10:27:42;17.00;;;9.33;;
3095;SDS011;1558;42.700;23.360;2023-12-04T10:30:22;9.93;;;8.93;;
3095;SDS011;1558;42.700;23.360;2023-12-04T10:32:56;11.43;;;8.87;;
3095;SDS011;1558;42.700;23.360;2023-12-04T10:35:28;13.40;;;10.33;;
3095;SDS011;1558;42.700;23.360;2023-12-04T10:37:58;16.00;;;11.80;;
3095;SDS011;1558;42.700;23.360;2023-12-04T10:40:28;14.80;;;10.13;;
3095;SDS011;1558;42.700;23.360;2023-12-04T10:43:15;19.27;;;11.43;;
3095;SDS011;1558;42.700;23.360;2023-12-04T10:45:44;11.03;;;9.90;;
3095;SDS011;1558;42.700;23.360;2023-12-04T10:48:16;11.10;;;9.63;;
3095;SDS011;1558;42.700;23.360;2023-12-04T10:50:47;10.07;;;9.07;;
3095;SDS011;1558;42.700;23.360;2023-12-04T10:53:16;11.90;;;10.07;;
3095;SDS011;1558;42.700;23.360;2023-12-04T10:55:45;10.77;;;9.77;;
3095;SDS011;1558;42.700;23.360;2023-12-04T10:58:16;13.07;;;10.43;;
3095;SDS011;1558;42.700;23.360;2023-12-04T11:00:45;12.67;;;10.67;;
3095;SDS011;1558;42.700;23.360;2023-12-04T11:03:18;13.57;;;11.13;;
3095;SDS011;1558;42.700;23.360;2023-12-04T11:05:51;11.03;;;9.93;;
3095;SDS011;1558;42.700;23.360;2023-12-04T11:08:23;11.40;;;9.53;;
3095;SDS011;1558;42.700;23.360;2023-12-04T11:10:58;10.63;;;9.47;;
3095;SDS011;1558;42.700;23.360;2023-12-04T11:13:29;10.10;;;9.10;;
3095;SDS011;1558;42.700;23.360;2023-12-04T11:16:01;11.53;;;10.33;;
3095;SDS011;1558;42.700;23.360;2023-12-04T11:18:36;10.13;;;9.13;;
3095;SDS011;1558;42.700;23.360;2023-12-04T11:21:08;10.97;;;9.57;;
3095;SDS011;1558;42.700;23.360;2023-12-04T11:23:38;9.77;;;8.77;;
3095;SDS011;1558;42.700;23.360;2023-12-04T11:26:07;11.60;;;10.27;;
3095;SDS011;1558;42.700;23.360;2023-12-04T11:28:36;14.27;;;10.47;;
3095;SDS011;1558;42.700;23.360;2023-12-04T11:31:06;11.90;;;10.80;;
3095;SDS011;1558;42.700;23.360;2023-12-04T11:33:37;12.20;;;10.97;;
3095;SDS011;1558;42.700;23.360;2023-12-04T11:36:07;11.43;;;10.23;;
3095;SDS011;1558;42.700;23.360;2023-12-04T11:38:43;11.40;;;10.17;;
3095;SDS011;1558;42.700;23.360;2023-12-04T11:41:18;12.10;;;10.50;;
3095;SDS011;1558;42.700;23.360;2023-12-04T11:43:52;14.47;;;11.13;;
3095;SDS011;1558;42.700;23.360;2023-12-04T11:46:24;11.77;;;10.67;;
3095;SDS011;1558;42.700;23.360;2023-12-04T11:48:55;14.03;;;10.83;;
3095;SDS011;1558;42.700;23.360;2023-12-04T11:54:18;12.83;;;11.53;;
3095;SDS011;1558;42.700;23.360;2023-12-04T11:56:57;11.80;;;10.60;;
3095;SDS011;1558;42.700;23.360;2023-12-04T11:59:27;11.30;;;10.17;;
3095;SDS011;1558;42.700;23.360;2023-12-04T12:01:55;16.63;;;11.10;;
3095;SDS011;1558;42.700;23.360;2023-12-04T12:04:27;12.20;;;10.40;;
3095;SDS011;1558;42.700;23.360;2023-12-04T12:06:57;12.73;;;10.37;;
3095;SDS011;1558;42.700;23.360;2023-12-04T12:09:28;11.97;;;10.77;;
3095;SDS011;1558;42.700;23.360;2023-12-04T12:11:58;13.13;;;10.67;;
3095;SDS011;1558;42.700;23.360;2023-12-04T12:14:28;15.47;;;12.10;;
3095;SDS011;1558;42.700;23.360;2023-12-04T12:16:58;11.23;;;10.17;;
3095;SDS011;1558;42.700;23.360;2023-12-04T12:19:29;13.03;;;11.70;;
3095;SDS011;1558;42.700;23.360;2023-12-04T12:21:57;11.67;;;10.47;;
3095;SDS011;1558;42.700;23.360;2023-12-04T12:24:27;12.30;;;11.07;;
3095;SDS011;1558;42.700;23.360;2023-12-04T12:26:56;12.10;;;10.90;;
3095;SDS011;1558;42.700;23.360;2023-12-04T12:29:24;13.57;;;11.47;;
3095;SDS011;1558;42.700;23.360;2023-12-04T12:31:52;13.43;;;11.67;;
3095;SDS011;1558;42.700;23.360;2023-12-04T12:34:21;13.13;;;11.83;;
3095;SDS011;1558;42.700;23.360;2023-12-04T12:36:51;18.70;;;12.80;;
3095;SDS011;1558;42.700;23.360;2023-12-04T12:39:21;22.60;;;13.07;;
3095;SDS011;1558;42.700;23.360;2023-12-04T12:41:49;19.87;;;13.70;;
3095;SDS011;1558;42.700;23.360;2023-12-04T12:44:17;14.90;;;11.73;;
3095;SDS011;1558;42.700;23.360;2023-12-04T12:46:49;13.30;;;11.90;;
3095;SDS011;1558;42.700;23.360;2023-12-04T12:49:18;13.70;;;12.27;;
3095;SDS011;1558;42.700;23.360;2023-12-04T12:52:04;14.83;;;11.23;;
3095;SDS011;1558;42.700;23.360;2023-12-04T12:54:36;18.27;;;12.93;;
3095;SDS011;1558;42.700;23.360;2023-12-04T12:57:05;19.37;;;13.23;;
3095;SDS011;1558;42.700;23.360;2023-12-04T12:59:34;14.23;;;12.73;;
3095;SDS011;1558;42.700;23.360;2023-12-04T13:02:02;17.60;;;13.50;;
3095;SDS011;1558;42.700;23.360;2023-12-04T13:04:34;15.90;;;12.87;;
3095;SDS011;1558;42.700;23.360;2023-12-04T13:07:04;16.43;;;13.00;;
3095;SDS011;1558;42.700;23.360;2023-12-04T13:09:33;15.30;;;12.50;;
3095;SDS011;1558;42.700;23.360;2023-12-04T13:12:04;16.00;;;12.47;;
3095;SDS011;1558;42.700;23.360;2023-12-04T13:14:33;17.90;;;12.97;;
3095;SDS011;1558;42.700;23.360;2023-12-04T13:17:02;13.60;;;11.97;;
3095;SDS011;1558;42.700;23.360;2023-12-04T13:19:31;14.00;;;12.57;;
3095;SDS011;1558;42.700;23.360;2023-12-04T13:22:01;15.97;;;12.97;;
3095;SDS011;1558;42.700;23.360;2023-12-04T13:24:32;13.53;;;11.53;;
3095;SDS011;1558;42.700;23.360;2023-12-04T13:27:01;15.97;;;12.30;;
3095;SDS011;1558;42.700;23.360;2023-12-04T13:29:29;14.30;;;12.77;;
3095;SDS011;1558;42.700;23.360;2023-12-04T13:31:58;17.50;;;13.23;;
3095;SDS011;1558;42.700;23.360;2023-12-04T13:34:26;15.07;;;12.53;;
3095;SDS011;1558;42.700;23.360;2023-12-04T13:36:55;14.80;;;13.20;;
3095;SDS011;1558;42.700;23.360;2023-12-04T13:39:24;16.30;;;12.27;;
3095;SDS011;1558;42.700;23.360;2023-12-04T13:42:15;16.37;;;13.90;;
3095;SDS011;1558;42.700;23.360;2023-12-04T13:45:01;13.87;;;12.33;;
3095;SDS011;1558;42.700;23.360;2023-12-04T13:47:31;18.27;;;12.27;;
3095;SDS011;1558;42.700;23.360;2023-12-04T13:50:01;19.00;;;12.37;;
3095;SDS011;1558;42.700;23.360;2023-12-04T13:52:30;16.47;;;11.93;;
3095;SDS011;1558;42.700;23.360;2023-12-04T13:55:00;15.90;;;12.17;;
3095;SDS011;1558;42.700;23.360;2023-12-04T13:57:39;15.80;;;14.10;;
3095;SDS011;1558;42.700;23.360;2023-12-04T14:00:23;13.60;;;11.40;;
3095;SDS011;1558;42.700;23.360;2023-12-04T14:02:52;11.17;;;9.90;;
3095;SDS011;1558;42.700;23.360;2023-12-04T14:05:26;13.63;;;11.07;;
3095;SDS011;1558;42.700;23.360;2023-12-04T14:07:55;14.17;;;10.63;;
3095;SDS011;1558;42.700;23.360;2023-12-04T14:10:25;15.73;;;11.60;;
3095;SDS011;1558;42.700;23.360;2023-12-04T14:12:56;16.73;;;11.30;;
3095;SDS011;1558;42.700;23.360;2023-12-04T14:15:26;12.53;;;11.23;;
3095;SDS011;1558;42.700;23.360;2023-12-04T14:17:55;12.60;;;10.80;;
3095;SDS011;1558;42.700;23.360;2023-12-04T14:20:23;14.27;;;11.40;;
3095;SDS011;1558;42.700;23.360;2023-12-04T14:22:52;14.00;;;10.47;;
3095;SDS011;1558;42.700;23.360;2023-12-04T14:25:20;12.27;;;9.97;;
3095;SDS011;1558;42.700;23.360;2023-12-04T14:27:50;13.37;;;10.80;;
3095;SDS011;1558;42.700;23.360;2023-12-04T14:30:19;11.73;;;9.23;;
3095;SDS011;1558;42.700;23.360;2023-12-04T14:32:48;10.40;;;9.30;;
3095;SDS011;1558;42.700;23.360;2023-12-04T14:35:17;11.80;;;9.13;;
3095;SDS011;1558;42.700;23.360;2023-12-04T14:37:46;12.90;;;9.53;;
3095;SDS011;1558;42.700;23.360;2023-12-04T14:40:14;13.13;;;9.13;;
3095;SDS011;1558;42.700;23.360;2023-12-04T14:42:43;12.53;;;9.70;;
3095;SDS011;1558;42.700;23.360;2023-12-04T14:45:11;18.30;;;10.87;;
3095;SDS011;1558;42.700;23.360;2023-12-04T14:47:42;12.10;;;10.80;;
3095;SDS011;1558;42.700;23.360;2023-12-04T14:50:10;20.50;;;11.90;;
3095;SDS011;1558;42.700;23.360;2023-12-04T14:52:40;13.60;;;11.27;;
3095;SDS011;1558;42.700;23.360;2023-12-04T14:55:14;15.10;;;12.73;;
3095;SDS011;1558;42.700;23.360;2023-12-04T14:57:58;16.40;;;13.17;;
3095;SDS011;1558;42.700;23.360;2023-12-04T15:00:41;19.83;;;14.43;;
3095;SDS011;1558;42.700;23.360;2023-12-04T15:03:27;23.53;;;16.40;;
3095;SDS011;1558;42.700;23.360;2023-12-04T15:06:09;33.13;;;20.10;;
3095;SDS011;1558;42.700;23.360;2023-12-04T15:09:06;34.47;;;24.60;;
3095;SDS011;1558;42.700;23.360;2023-12-04T15:11:55;36.40;;;27.13;;
3095;SDS011;1558;42.700;23.360;2023-12-04T15:14:44;47.97;;;33.33;;
3095;SDS011;1558;42.700;23.360;2023-12-04T15:17:18;53.40;;;33.60;;
3095;SDS011;1558;42.700;23.360;2023-12-04T15:19:56;43.20;;;30.20;;
3095;SDS011;1558;42.700;23.360;2023-12-04T15:22:44;45.10;;;32.03;;
3095;SDS011;1558;42.700;23.360;2023-12-04T15:25:15;48.13;;;35.80;;
3095;SDS011;1558;42.700;23.360;2023-12-04T15:27:43;51.23;;;38.73;;
3095;SDS011;1558;42.700;23.360;2023-12-04T15:30:12;52.70;;;37.47;;
3095;SDS011;1558;42.700;23.360;2023-12-04T15:32:41;59.97;;;40.43;;
3095;SDS011;1558;42.700;23.360;2023-12-04T15:35:09;50.10;;;39.67;;
3095;SDS011;1558;42.700;23.360;2023-12-04T15:37:40;49.60;;;38.10;;
3095;SDS011;1558;42.700;23.360;2023-12-04T15:40:09;59.13;;;44.57;;
3095;SDS011;1558;42.700;23.360;2023-12-04T15:42:39;44.53;;;36.33;;
3095;SDS011;1558;42.700;23.360;2023-12-04T15:45:08;56.80;;;41.53;;
3095;SDS011;1558;42.700;23.360;2023-12-04T15:47:37;45.93;;;35.43;;
3095;SDS011;1558;42.700;23.360;2023-12-04T15:50:06;34.27;;;25.57;;
3095;SDS011;1558;42.700;23.360;2023-12-04T15:52:34;38.57;;;31.93;;
3095;SDS011;1558;42.700;23.360;2023-12-04T15:55:07;34.97;;;25.83;;
3095;SDS011;1558;42.700;23.360;2023-12-04T15:57:37;38.23;;;29.87;;
3095;SDS011;1558;42.700;23.360;2023-12-04T16:00:08;40.90;;;31.97;;
3095;SDS011;1558;42.700;23.360;2023-12-04T16:02:38;37.47;;;29.57;;
3095;SDS011;1558;42.700;23.360;2023-12-04T16:05:07;38.00;;;28.97;;
3095;SDS011;1558;42.700;23.360;2023-12-04T16:07:38;35.37;;;27.70;;
3095;SDS011;1558;42.700;23.360;2023-12-04T16:10:07;51.87;;;33.57;;
3095;SDS011;1558;42.700;23.360;2023-12-04T16:12:37;47.40;;;34.80;;
3095;SDS011;1558;42.700;23.360;2023-12-04T16:15:08;54.27;;;36.80;;
3095;SDS011;1558;42.700;23.360;2023-12-04T16:17:41;51.03;;;35.43;;
3095;SDS011;1558;42.700;23.360;2023-12-04T16:20:10;52.10;;;36.27;;
3095;SDS011;1558;42.700;23.360;2023-12-04T16:22:39;56.63;;;39.07;;
3095;SDS011;1558;42.700;23.360;2023-12-04T16:25:09;63.23;;;42.10;;
3095;SDS011;1558;42.700;23.360;2023-12-04T16:27:44;60.40;;;45.27;;
3095;SDS011;1558;42.700;23.360;2023-12-04T16:30:14;73.13;;;53.53;;
3095;SDS011;1558;42.700;23.360;2023-12-04T16:32:42;83.17;;;57.20;;
3095;SDS011;1558;42.700;23.360;2023-12-04T16:35:11;84.47;;;59.50;;
3095;SDS011;1558;42.700;23.360;2023-12-04T16:37:39;101.10;;;71.13;;
3095;SDS011;1558;42.700;23.360;2023-12-04T16:40:08;99.37;;;66.57;;
3095;SDS011;1558;42.700;23.360;2023-12-04T16:42:38;96.37;;;65.10;;
3095;SDS011;1558;42.700;23.360;2023-12-04T16:45:10;105.97;;;74.83;;
3095;SDS011;1558;42.700;23.360;2023-12-04T16:47:41;93.60;;;76.97;;
3095;SDS011;1558;42.700;23.360;2023-12-04T16:50:09;110.73;;;90.97;;
3095;SDS011;1558;42.700;23.360;2023-12-04T16:52:38;136.23;;;113.27;;
3095;SDS011;1558;42.700;23.360;2023-12-04T16:55:07;136.17;;;111.33;;
3095;SDS011;1558;42.700;23.360;2023-12-04T16:57:36;128.50;;;105.57;;
3095;SDS011;1558;42.700;23.360;2023-12-04T17:00:04;121.57;;;104.37;;
3095;SDS011;1558;42.700;23.360;2023-12-04T17:02:35;120.27;;;101.67;;
3095;SDS011;1558;42.700;23.360;2023-12-04T17:05:05;123.57;;;105.63;;
3095;SDS011;1558;42.700;23.360;2023-12-04T17:07:34;117.57;;;92.07;;
3095;SDS011;1558;42.700;23.360;2023-12-04T17:10:04;107.37;;;85.77;;
3095;SDS011;1558;42.700;23.360;2023-12-04T17:12:36;88.37;;;70.50;;
3095;SDS011;1558;42.700;23.360;2023-12-04T17:15:11;80.00;;;63.37;;
3095;SDS011;1558;42.700;23.360;2023-12-04T17:17:40;112.33;;;86.20;;
3095;SDS011;1558;42.700;23.360;2023-12-04T17:20:11;111.53;;;85.43;;
3095;SDS011;1558;42.700;23.360;2023-12-04T17:22:41;113.23;;;83.10;;
3095;SDS011;1558;42.700;23.360;2023-12-04T17:25:11;104.83;;;80.37;;
3095;SDS011;1558;42.700;23.360;2023-12-04T17:27:39;90.90;;;67.27;;
3095;SDS011;1558;42.700;23.360;2023-12-04T17:30:08;98.63;;;74.23;;
3095;SDS011;1558;42.700;23.360;2023-12-04T17:32:37;103.93;;;72.83;;
3095;SDS011;1558;42.700;23.360;2023-12-04T17:35:06;123.93;;;86.93;;
3095;SDS011;1558;42.700;23.360;2023-12-04T17:37:36;114.47;;;80.10;;
3095;SDS011;1558;42.700;23.360;2023-12-04T17:40:05;109.43;;;78.10;;
3095;SDS011;1558;42.700;23.360;2023-12-04T17:42:34;88.63;;;65.80;;
3095;SDS011;1558;42.700;23.360;2023-12-04T17:45:04;81.30;;;58.77;;
3095;SDS011;1558;42.700;23.360;2023-12-04T17:47:34;80.13;;;57.57;;
3095;SDS011;1558;42.700;23.360;2023-12-04T17:50:03;74.80;;;55.10;;
3095;SDS011;1558;42.700;23.360;2023-12-04T17:52:36;75.17;;;51.73;;
3095;SDS011;1558;42.700;23.360;2023-12-04T17:55:05;82.30;;;55.23;;
3095;SDS011;1558;42.700;23.360;2023-12-04T17:57:33;75.67;;;53.93;;
3095;SDS011;1558;42.700;23.360;2023-12-04T18:00:02;70.23;;;50.90;;
3095;SDS011;1558;42.700;23.360;2023-12-04T18:02:35;68.27;;;50.77;;
3095;SDS011;1558;42.700;23.360;2023-12-04T18:05:04;75.37;;;55.13;;
3095;SDS011;1558;42.700;23.360;2023-12-04T18:07:38;58.10;;;41.17;;
3095;SDS011;1558;42.700;23.360;2023-12-04T18:10:07;67.60;;;48.63;;
3095;SDS011;1558;42.700;23.360;2023-12-04T18:12:35;73.17;;;52.50;;
3095;SDS011;1558;42.700;23.360;2023-12-04T18:15:06;81.60;;;56.90;;
3095;SDS011;1558;42.700;23.360;2023-12-04T18:17:36;74.83;;;56.30;;
3095;SDS011;1558;42.700;23.360;2023-12-04T18:20:09;74.63;;;54.27;;
3095;SDS011;1558;42.700;23.360;2023-12-04T18:22:39;69.27;;;53.13;;
3095;SDS011;1558;42.700;23.360;2023-12-04T18:25:08;70.10;;;51.77;;
3095;SDS011;1558;42.700;23.360;2023-12-04T18:27:37;75.87;;;51.17;;
3095;SDS011;1558;42.700;23.360;2023-12-04T18:30:07;58.57;;;45.27;;
3095;SDS011;1558;42.700;23.360;2023-12-04T18:32:36;73.53;;;53.30;;
3095;SDS011;1558;42.700;23.360;2023-12-04T18:35:06;71.03;;;53.63;;
3095;SDS011;1558;42.700;23.360;2023-12-04T18:37:38;67.70;;;50.03;;
3095;SDS011;1558;42.700;23.360;2023-12-04T18:40:17;77.47;;;50.50;;
3095;SDS011;1558;42.700;23.360;2023-12-04T18:42:46;86.17;;;59.10;;
3095;SDS011;1558;42.700;23.360;2023-12-04T18:45:15;67.03;;;50.43;;
3095;SDS011;1558;42.700;23.360;2023-12-04T18:47:44;72.43;;;54.30;;
3095;SDS011;1558;42.700;23.360;2023-12-04T18:50:14;72.53;;;51.10;;
3095;SDS011;1558;42.700;23.360;2023-12-04T18:52:46;91.83;;;59.37;;
3095;SDS011;1558;42.700;23.360;2023-12-04T18:55:16;68.77;;;48.30;;
3095;SDS011;1558;42.700;23.360;2023-12-04T18:57:44;68.70;;;49.70;;
3095;SDS011;1558;42.700;23.360;2023-12-04T19:00:13;67.87;;;47.27;;
3095;SDS011;1558;42.700;23.360;2023-12-04T19:02:42;70.03;;;54.60;;
3095;SDS011;1558;42.700;23.360;2023-12-04T19:05:10;92.47;;;70.87;;
3095;SDS011;1558;42.700;23.360;2023-12-04T19:07:39;84.53;;;63.47;;
3095;SDS011;1558;42.700;23.360;2023-12-04T19:10:09;108.63;;;79.67;;
3095;SDS011;1558;42.700;23.360;2023-12-04T19:12:40;123.57;;;88.57;;
3095;SDS011;1558;42.700;23.360;2023-12-04T19:15:08;105.90;;;73.60;;
3095;SDS011;1558;42.700;23.360;2023-12-04T19:17:37;98.47;;;70.00;;
3095;SDS011;1558;42.700;23.360;2023-12-04T19:20:06;88.93;;;61.53;;
3095;SDS011;1558;42.700;23.360;2023-12-04T19:22:36;55.23;;;42.07;;
3095;SDS011;1558;42.700;23.360;2023-12-04T19:25:05;69.23;;;49.27;;
3095;SDS011;1558;42.700;23.360;2023-12-04T19:27:35;59.03;;;40.80;;
3095;SDS011;1558;42.700;23.360;2023-12-04T19:30:03;52.57;;;39.03;;
3095;SDS011;1558;42.700;23.360;2023-12-04T19:32:34;56.07;;;38.07;;
3095;SDS011;1558;42.700;23.360;2023-12-04T19:35:03;52.63;;;38.90;;
3095;SDS011;1558;42.700;23.360;2023-12-04T19:37:32;76.33;;;54.60;;
3095;SDS011;1558;42.700;23.360;2023-12-04T19:40:00;72.50;;;52.00;;
3095;SDS011;1558;42.700;23.360;2023-12-04T19:42:29;75.73;;;54.13;;
3095;SDS011;1558;42.700;23.360;2023-12-04T19:44:59;75.40;;;50.10;;
3095;SDS011;1558;42.700;23.360;2023-12-04T19:47:27;65.10;;;43.47;;
3095;SDS011;1558;42.700;23.360;2023-12-04T19:49:55;57.43;;;42.03;;
3095;SDS011;1558;42.700;23.360;2023-12-04T19:52:24;55.07;;;40.33;;
3095;SDS011;1558;42.700;23.360;2023-12-04T19:54:53;63.10;;;45.40;;
3095;SDS011;1558;42.700;23.360;2023-12-04T19:57:21;51.17;;;37.97;;
3095;SDS011;1558;42.700;23.360;2023-12-04T19:59:50;42.27;;;31.90;;
3095;SDS011;1558;42.700;23.360;2023-12-04T20:02:20;39.97;;;29.07;;
3095;SDS011;1558;42.700;23.360;2023-12-04T20:04:48;28.17;;;19.90;;
3095;SDS011;1558;42.700;23.360;2023-12-04T20:07:17;19.53;;;15.70;;
3095;SDS011;1558;42.700;23.360;2023-12-04T20:09:46;20.90;;;16.63;;
3095;SDS011;1558;42.700;23.360;2023-12-04T20:12:16;20.23;;;16.27;;
3095;SDS011;1558;42.700;23.360;2023-12-04T20:14:45;19.87;;;16.60;;
3095;SDS011;1558;42.700;23.360;2023-12-04T20:17:15;17.23;;;15.00;;
3095;SDS011;1558;42.700;23.360;2023-12-04T20:19:44;18.13;;;15.73;;
3095;SDS011;1558;42.700;23.360;2023-12-04T20:22:13;23.67;;;19.40;;
3095;SDS011;1558;42.700;23.360;2023-12-04T20:24:42;27.23;;;22.60;;
3095;SDS011;1558;42.700;23.360;2023-12-04T20:27:13;23.07;;;20.63;;
3095;SDS011;1558;42.700;23.360;2023-12-04T20:29:41;24.63;;;22.03;;
3095;SDS011;1558;42.700;23.360;2023-12-04T20:32:10;21.83;;;18.40;;
3095;SDS011;1558;42.700;23.360;2023-12-04T20:34:38;20.57;;;16.37;;
3095;SDS011;1558;42.700;23.360;2023-12-04T20:37:07;19.93;;;15.70;;
3095;SDS011;1558;42.700;23.360;2023-12-04T20:39:36;20.13;;;16.37;;
3095;SDS011;1558;42.700;23.360;2023-12-04T20:42:08;20.97;;;16.20;;
3095;SDS011;1558;42.700;23.360;2023-12-04T20:44:39;18.40;;;15.60;;
3095;SDS011;1558;42.700;23.360;2023-12-04T20:47:07;19.03;;;15.77;;
3095;SDS011;1558;42.700;23.360;2023-12-04T20:49:35;20.80;;;16.63;;
3095;SDS011;1558;42.700;23.360;2023-12-04T20:52:04;19.17;;;15.57;;
3095;SDS011;1558;42.700;23.360;2023-12-04T20:54:37;23.40;;;17.80;;
3095;SDS011;1558;42.700;23.360;2023-12-04T20:57:06;18.67;;;16.07;;
3095;SDS011;1558;42.700;23.360;2023-12-04T20:59:35;19.40;;;15.93;;
3095;SDS011;1558;42.700;23.360;2023-12-04T21:02:04;17.77;;;15.47;;
3095;SDS011;1558;42.700;23.360;2023-12-04T21:04:32;18.77;;;16.07;;
3095;SDS011;1558;42.700;23.360;2023-12-04T21:07:01;20.23;;;15.83;;
3095;SDS011;1558;42.700;23.360;2023-12-04T21:09:31;18.27;;;16.27;;
3095;SDS011;1558;42.700;23.360;2023-12-04T21:12:03;15.63;;;13.40;;
3095;SDS011;1558;42.700;23.360;2023-12-04T21:14:32;18.97;;;16.13;;
3095;SDS011;1558;42.700;23.360;2023-12-04T21:17:00;18.90;;;15.97;;
3095;SDS011;1558;42.700;23.360;2023-12-04T21:19:29;19.90;;;15.70;;
3095;SDS011;1558;42.700;23.360;2023-12-04T21:21:57;20.50;;;16.07;;
3095;SDS011;1558;42.700;23.360;2023-12-04T21:24:25;18.83;;;16.00;;
3095;SDS011;1558;42.700;23.360;2023-12-04T21:26:56;19.50;;;15.27;;
3095;SDS011;1558;42.700;23.360;2023-12-04T21:29:25;18.17;;;15.13;;
3095;SDS011;1558;42.700;23.360;2023-12-04T21:31:54;19.40;;;15.93;;
3095;SDS011;1558;42.700;23.360;2023-12-04T21:34:23;17.43;;;15.13;;
3095;SDS011;1558;42.700;23.360;2023-12-04T21:36:51;18.67;;;15.83;;
3095;SDS011;1558;42.700;23.360;2023-12-04T21:39:20;18.87;;;15.17;;
3095;SDS011;1558;42.700;23.360;2023-12-04T21:41:48;19.97;;;16.53;;
3095;SDS011;1558;42.700;23.360;2023-12-04T21:44:16;19.17;;;15.27;;
3095;SDS011;1558;42.700;23.360;2023-12-04T21:46:46;20.23;;;16.83;;
3095;SDS011;1558;42.700;23.360;2023-12-04T21:49:14;16.87;;;14.77;;
3095;SDS011;1558;42.700;23.360;2023-12-04T21:51:43;20.00;;;16.33;;
3095;SDS011;1558;42.700;23.360;2023-12-04T21:54:11;19.57;;;16.47;;
3095;SDS011;1558;42.700;23.360;2023-12-04T21:56:39;21.63;;;16.70;;
3095;SDS011;1558;42.700;23.360;2023-12-04T21:59:08;24.67;;;18.13;;
3095;SDS011;1558;42.700;23.360;2023-12-04T22:01:50;24.30;;;18.73;;
3095;SDS011;1558;42.700;23.360;2023-12-04T22:04:18;25.90;;;18.27;;
3095;SDS011;1558;42.700;23.360;2023-12-04T22:06:47;22.47;;;17.70;;
3095;SDS011;1558;42.700;23.360;2023-12-04T22:09:16;22.60;;;17.90;;
3095;SDS011;1558;42.700;23.360;2023-12-04T22:11:45;22.20;;;17.47;;
3095;SDS011;1558;42.700;23.360;2023-12-04T22:14:14;20.70;;;17.20;;
3095;SDS011;1558;42.700;23.360;2023-12-04T22:16:42;24.77;;;18.20;;
3095;SDS011;1558;42.700;23.360;2023-12-04T22:19:11;23.27;;;17.67;;
3095;SDS011;1558;42.700;23.360;2023-12-04T22:21:40;24.03;;;18.03;;
3095;SDS011;1558;42.700;23.360;2023-12-04T22:24:08;23.40;;;18.83;;
3095;SDS011;1558;42.700;23.360;2023-12-04T22:26:36;22.27;;;16.90;;
3095;SDS011;1558;42.700;23.360;2023-12-04T22:29:05;23.93;;;17.97;;
3095;SDS011;1558;42.700;23.360;2023-12-04T22:31:33;21.83;;;16.50;;
3095;SDS011;1558;42.700;23.360;2023-12-04T22:34:01;22.00;;;15.70;;
3095;SDS011;1558;42.700;23.360;2023-12-04T22:36:31;23.57;;;17.23;;
3095;SDS011;1558;42.700;23.360;2023-12-04T22:38:59;23.87;;;16.33;;
3095;SDS011;1558;42.700;23.360;2023-12-04T22:41:27;22.83;;;16.00;;
3095;SDS011;1558;42.700;23.360;2023-12-04T22:43:57;20.47;;;15.17;;
3095;SDS011;1558;42.700;23.360;2023-12-04T22:46:26;19.30;;;16.10;;
3095;SDS011;1558;42.700;23.360;2023-12-04T22:48:55;19.07;;;16.00;;
3095;SDS011;1558;42.700;23.360;2023-12-04T22:51:23;18.73;;;14.67;;
3095;SDS011;1558;42.700;23.360;2023-12-04T22:53:53;18.90;;;15.17;;
3095;SDS011;1558;42.700;23.360;2023-12-04T22:56:21;18.13;;;15.67;;
3095;SDS011;1558;42.700;23.360;2023-12-04T22:58:50;17.23;;;14.00;;
3095;SDS011;1558;42.700;23.360;2023-12-04T23:01:18;18.97;;;15.53;;
3095;SDS011;1558;42.700;23.360;2023-12-04T23:03:46;18.10;;;15.20;;
3095;SDS011;1558;42.700;23.360;2023-12-04T23:06:14;20.07;;;14.97;;
3095;SDS011;1558;42.700;23.360;2023-12-04T23:08:43;18.90;;;15.47;;
3095;SDS011;1558;42.700;23.360;2023-12-04T23:11:13;18.13;;;14.23;;
3095;SDS011;1558;42.700;23.360;2023-12-04T23:13:41;18.67;;;13.77;;
3095;SDS011;1558;42.700;23.360;2023-12-04T23:16:10;19.73;;;14.80;;
3095;SDS011;1558;42.700;23.360;2023-12-04T23:18:38;17.07;;;13.77;;
3095;SDS011;1558;42.700;23.360;2023-12-04T23:21:08;19.53;;;14.47;;
3095;SDS011;1558;42.700;23.360;2023-12-04T23:23:36;17.43;;;14.23;;
3095;SDS011;1558;42.700;23.360;2023-12-04T23:26:03;16.37;;;13.23;;
3095;SDS011;1558;42.700;23.360;2023-12-04T23:28:34;17.27;;;13.77;;
3095;SDS011;1558;42.700;23.360;2023-12-04T23:31:02;17.40;;;13.23;;
3095;SDS011;1558;42.700;23.360;2023-12-04T23:33:30;16.87;;;13.03;;
3095;SDS011;1558;42.700;23.360;2023-12-04T23:35:59;16.20;;;13.47;;
3095;SDS011;1558;42.700;23.360;2023-12-04T23:38:27;15.40;;;12.90;;
3095;SDS011;1558;42.700;23.360;2023-12-04T23:40:56;17.20;;;13.03;;
3095;SDS011;1558;42.700;23.360;2023-12-04T23:43:24;17.03;;;13.10;;
3095;SDS011;1558;42.700;23.360;2023-12-04T23:45:53;16.13;;;13.60;;
3095;SDS011;1558;42.700;23.360;2023-12-04T23:48:22;16.23;;;13.77;;
3095;SDS011;1558;42.700;23.360;2023-12-04T23:50:51;16.27;;;14.37;;
3095;SDS011;1558;42.700;23.360;2023-12-04T23:53:19;18.40;;;14.00;;
3095;SDS011;1558;42.700;23.360;2023-12-04T23:55:48;18.73;;;14.43;;
3095;SDS011;1558;42.700;23.360;2023-12-04T23:58:16;17.60;;;14.57;;
